Istanbul, Turki

02:35 PM EEST on April 18, 2015 (GMT +0300)
Ataturk | | Change Station
CLOSE
Current Station
Airport
Location: Istanbul,
Elevation: 121 ft
Nearby Weather Stations

Elev 121 ft 40.98 °N, 28.81 °E | Updated 15 minutes ago

Clear
Cerah
66 °F
Feels Like 66 °F
N
9
Angin Variable Angin from Baratdaya

Siang Ini
High -- | Low -- °F
--% Chance of Precip.
Yesterday
High -- | Low -- °F
Precip. -- Inch
6:21 AM 7:47 PM
Waning Crescent, 0% visible
Tekanan 29.92 Inch
Jarak Pandang -9999.0 Mil
Awan
Titik Embun 50 °F
Kelembaban 56%
Rainfall 0.00 Inch
Snow Depth Not available.
UV Not available.
Pollen Not available.
Air Quality Not available.
Flu Activity Not available.
METAR LTBA 181120Z 22008KT CAVOK 19/10 Q1013 NOSIG

More Conditions Fewer Conditions

Tekanan 29.92 Inch
Jarak Pandang -9999.0 Mil
Awan
Titik Embun 50 °F
Kelembaban 56%
Rainfall 0.00 Inch
Snow Depth Not available.
UV Not available.
Pollen Not available.
Air Quality Not available.
Flu Activity Not available.
METAR LTBA 181120Z 22008KT CAVOK 19/10 Q1013 NOSIG

More Conditions Fewer Conditions

10-Day Weather Forecast

Almanac

Astronomi

Apr. 18, 2015 Rise Set
Actual Time
Civil Twilight
Nautical Twilight
Astronomical Twilight
Moon
Length Of Visible Light
Lama Satu Hari
Tomorrow will be .
, % of the Moon is Illuminated

Today's Extremes

Country Highs Country Lows

Community

WunderPhotos

Upload Photos

1,814,368 photos uploaded!

WunderBlogs® & News

Nearby

Air Quality

  Air Quality AQ Index Pollutant
Not available.

Snow Depth

Station Depth Elevation

Earthquake Activity

City Distance Mag. Time & Date
Minimum magnitude displayed is 2.5.

Coastal Water Temperatures

Lokasi Temperatur

Stations

Nearby Weather Stations

Station Location Temp Angin Dingin Titik Embun Kelembaban Angin Precip. Elev Telah Diperbaharui Type